Terminal Aerodrome Forecast
Issued by NWS

Home | Current Version | Previous Version | Text Only | Print | Product List | Glossary On
Versions: 1 2 3 4 5 6 7 8 9 10 11 12 13 14 15 16 17 18 19 20 21 22 23
000
FTUS43 KGLD 281100
TAFMCK
TAF
KMCK 281120Z 2812/2912 08005KT P6SM FEW100 SCT250
     FM281700 13008KT P6SM SCT070
     FM290300 10008KT P6SM SCT080=

USA.gov is the U.S. government's official web portal to all federal, state and local government web resources and services.